Time;durP1;ratioP1;P1;durP2;ratioP2;P2;SDS_P1;SDS_P2;PMS_P1;PMS_P2;Temp;Humidity;BMP_temperature;BMP_pressure;BME280_temperature;BME280_humidity;BME280_pressure;Samples;Min_cycle;Max_cycle;Signal;HPM_P1;HPM_P2
2022/03/09 00:02:01;;;;;;;7.93;5.53;;;1.20;99.90;;;;;;5050358;28;20053;-65
2022/03/09 00:04:26;;;;;;;7.30;5.32;;;1.20;99.90;;;;;;5049094;28;20487;-65
2022/03/09 00:06:52;;;;;;;6.75;5.25;;;1.10;99.90;;;;;;5031823;28;20049;-64
2022/03/09 00:09:18;;;;;;;7.47;4.78;;;1.10;99.90;;;;;;5032715;28;20085;-63
2022/03/09 00:11:43;;;;;;;6.68;4.88;;;1.10;99.90;;;;;;5031530;28;20084;-65
2022/03/09 00:14:09;;;;;;;7.38;5.15;;;1.10;99.90;;;;;;5033409;28;20057;-63
2022/03/09 00:16:35;;;;;;;9.05;5.13;;;1.10;99.90;;;;;;5053621;28;20052;-68
2022/03/09 00:19:00;;;;;;;6.55;4.30;;;1.00;99.90;;;;;;5056758;28;20059;-65
2022/03/09 00:21:26;;;;;;;5.88;4.85;;;1.00;99.90;;;;;;5051404;28;20046;-64
2022/03/09 00:23:52;;;;;;;10.68;5.25;;;1.00;99.90;;;;;;5052028;28;20052;-64
2022/03/09 00:26:17;;;;;;;6.85;5.07;;;0.90;99.90;;;;;;5054532;28;20068;-63
2022/03/09 00:28:43;;;;;;;6.05;5.00;;;0.90;99.90;;;;;;5056058;28;20045;-63
2022/03/09 00:31:08;;;;;;;8.98;4.97;;;0.90;99.90;;;;;;5054998;28;20056;-67
2022/03/09 00:33:35;;;;;;;7.78;5.32;;;0.80;99.90;;;;;;5054943;28;20094;-66
2022/03/09 00:36:01;;;;;;;7.50;4.47;;;0.80;99.90;;;;;;5055309;28;20093;-66
2022/03/09 00:38:27;;;;;;;6.68;5.15;;;0.80;99.90;;;;;;5055205;28;20109;-64
2022/03/09 00:40:52;;;;;;;8.07;4.97;;;0.60;99.90;;;;;;5054626;28;20498;-64
2022/03/09 00:43:18;;;;;;;8.20;5.13;;;0.60;99.90;;;;;;5053805;28;20053;-63
2022/03/09 00:45:45;;;;;;;6.60;5.43;;;0.60;99.90;;;;;;5055401;28;20041;-63
2022/03/09 00:48:10;;;;;;;7.07;5.30;;;0.60;99.90;;;;;;5055966;28;20060;-65
2022/03/09 00:50:36;;;;;;;7.10;4.85;;;0.60;99.90;;;;;;5055057;28;20053;-63
2022/03/09 00:53:02;;;;;;;8.75;5.47;;;0.50;99.90;;;;;;5053964;28;20053;-65
2022/03/09 00:55:27;;;;;;;11.50;5.30;;;0.50;99.90;;;;;;5054780;28;20482;-63
2022/03/09 00:57:53;;;;;;;8.32;5.43;;;0.50;99.90;;;;;;5053650;28;20088;-64
2022/03/09 01:00:18;;;;;;;9.80;5.55;;;0.50;99.90;;;;;;5055309;28;20053;-65
2022/03/09 01:02:45;;;;;;;8.18;5.72;;;0.40;99.90;;;;;;5054506;28;20049;-64
2022/03/09 01:05:12;;;;;;;8.68;5.38;;;0.40;99.90;;;;;;5054611;28;20446;-66
2022/03/09 01:07:38;;;;;;;7.47;5.80;;;0.40;99.90;;;;;;5043368;28;20057;-63
2022/03/09 01:10:04;;;;;;;6.43;5.15;;;0.40;99.90;;;;;;5034910;28;20402;-64
2022/03/09 01:12:31;;;;;;;7.30;5.30;;;0.30;99.90;;;;;;5039095;28;20041;-62
2022/03/09 01:14:57;;;;;;;7.03;5.70;;;0.30;99.90;;;;;;5054720;28;20055;-65
2022/03/09 01:17:23;;;;;;;8.38;5.13;;;0.30;99.90;;;;;;5054348;28;20335;-65
2022/03/09 01:19:49;;;;;;;8.88;5.80;;;0.30;99.90;;;;;;5054351;28;20049;-63
2022/03/09 01:22:14;;;;;;;7.47;5.65;;;0.30;99.90;;;;;;5041545;28;20048;-63
2022/03/09 01:24:40;;;;;;;9.15;5.55;;;0.30;99.90;;;;;;5034724;28;20041;-65
2022/03/09 01:27:05;;;;;;;9.05;5.95;;;0.30;99.90;;;;;;5036870;28;20521;-66
2022/03/09 01:29:31;;;;;;;6.05;5.05;;;0.30;99.90;;;;;;5054333;28;20051;-64
2022/03/09 01:31:57;;;;;;;8.73;5.63;;;0.20;99.90;;;;;;5055183;28;20405;-63
2022/03/09 01:34:22;;;;;;;8.88;5.95;;;0.10;99.90;;;;;;5053562;28;20084;-65
2022/03/09 01:36:48;;;;;;;7.35;5.78;;;0.10;99.90;;;;;;5053582;28;20076;-65
2022/03/09 01:39:13;;;;;;;7.80;6.18;;;0.10;99.90;;;;;;5053637;28;20044;-65
2022/03/09 01:41:39;;;;;;;9.75;6.25;;;0.10;99.90;;;;;;5052019;28;20053;-65
2022/03/09 01:44:08;;;;;;;8.88;5.95;;;0.00;99.90;;;;;;5054055;28;20049;-64
2022/03/09 01:46:34;;;;;;;9.77;6.10;;;-0.10;99.90;;;;;;5053742;28;20061;-65
2022/03/09 01:49:00;;;;;;;8.95;6.30;;;-0.10;99.90;;;;;;5053903;28;20045;-66
2022/03/09 01:51:26;;;;;;;8.80;6.13;;;-0.10;99.90;;;;;;5053939;28;20053;-64
2022/03/09 01:53:52;;;;;;;8.00;5.63;;;-0.10;99.90;;;;;;5055634;28;20134;-65
2022/03/09 01:56:18;;;;;;;9.40;6.28;;;-0.10;99.90;;;;;;5051646;28;20477;-65
2022/03/09 01:58:44;;;;;;;10.90;6.28;;;-0.10;99.90;;;;;;5053097;28;20053;-63
2022/03/09 02:01:09;;;;;;;11.52;6.10;;;0.00;99.90;;;;;;5052735;28;20132;-65
2022/03/09 02:03:35;;;;;;;11.40;6.32;;;0.00;99.90;;;;;;5053334;28;20520;-64
2022/03/09 02:06:01;;;;;;;9.50;6.35;;;0.00;99.90;;;;;;5054968;28;20052;-64
2022/03/09 02:11:12;;;;;;;8.27;5.70;;;0.00;99.90;;;;;;5033821;28;20057;-63
2022/03/09 02:13:38;;;;;;;8.57;6.38;;;0.00;99.90;;;;;;5043481;28;20049;-65
2022/03/09 02:16:05;;;;;;;8.15;6.68;;;-0.10;99.90;;;;;;5033457;28;20128;-62
2022/03/09 02:18:30;;;;;;;7.97;6.15;;;-0.10;99.90;;;;;;5032874;28;20064;-64
2022/03/09 02:21:01;;;;;;;8.30;6.10;;;-0.20;99.90;;;;;;5033482;28;20049;-64
2022/03/09 02:23:26;;;;;;;9.68;6.28;;;-0.20;99.90;;;;;;5034485;28;20065;-63
2022/03/09 02:25:52;;;;;;;10.45;6.20;;;-0.30;99.90;;;;;;5034641;28;20061;-64
2022/03/09 02:28:18;;;;;;;10.95;6.60;;;-0.20;99.90;;;;;;5049371;28;20041;-64
2022/03/09 02:30:43;;;;;;;8.57;5.90;;;-0.20;99.90;;;;;;5053147;28;20478;-65
2022/03/09 02:33:09;;;;;;;11.02;6.53;;;-0.20;99.90;;;;;;5052877;28;20370;-64
2022/03/09 02:35:35;;;;;;;9.98;6.45;;;-0.20;99.90;;;;;;5041379;28;20056;-64
2022/03/09 02:38:00;;;;;;;10.07;6.32;;;-0.20;99.90;;;;;;5052522;28;20457;-64
2022/03/09 02:40:26;;;;;;;9.25;6.40;;;-0.30;99.90;;;;;;5052136;28;20072;-63
2022/03/09 02:42:52;;;;;;;10.07;7.15;;;-0.30;99.90;;;;;;5052356;28;20049;-65
2022/03/09 02:45:18;;;;;;;9.85;6.28;;;-0.30;99.90;;;;;;5052336;28;20484;-64
2022/03/09 02:47:45;;;;;;;8.80;6.63;;;-0.30;99.90;;;;;;5052699;28;20052;-64
2022/03/09 02:50:12;;;;;;;9.70;6.80;;;-0.40;99.90;;;;;;5051092;28;20128;-63
2022/03/09 02:52:42;;;;;;;8.93;6.45;;;-0.40;99.90;;;;;;5033804;28;20053;-63
2022/03/09 02:55:09;;;;;;;10.32;7.00;;;-0.50;99.90;;;;;;5052120;28;20056;-65
2022/03/09 02:57:35;;;;;;;9.82;6.70;;;-0.40;99.90;;;;;;5052163;28;20053;-64
2022/03/09 03:00:02;;;;;;;11.00;6.97;;;-0.50;99.90;;;;;;5052851;28;20056;-62
2022/03/09 03:02:28;;;;;;;11.63;7.20;;;-0.50;99.90;;;;;;5051893;28;20057;-67
2022/03/09 03:04:53;;;;;;;8.80;6.53;;;-0.50;99.90;;;;;;5050530;28;20055;-65
2022/03/09 03:07:19;;;;;;;11.48;7.13;;;-0.50;99.90;;;;;;5032461;28;20454;-65
2022/03/09 03:09:44;;;;;;;9.10;7.07;;;-0.40;99.90;;;;;;5051982;28;20100;-64
2022/03/09 03:12:10;;;;;;;11.50;7.15;;;-0.50;99.90;;;;;;5051674;28;20106;-64
2022/03/09 03:14:35;;;;;;;10.60;7.10;;;-0.50;99.90;;;;;;5052031;28;20068;-64
2022/03/09 03:17:01;;;;;;;10.23;7.55;;;-0.50;99.90;;;;;;5052794;28;20053;-64
2022/03/09 03:19:26;;;;;;;9.63;7.60;;;-0.50;99.90;;;;;;5051826;28;20434;-64
2022/03/09 03:21:52;;;;;;;11.57;7.85;;;-0.50;99.90;;;;;;5051300;28;20087;-65
2022/03/09 03:24:18;;;;;;;11.95;7.00;;;-0.50;99.90;;;;;;5037268;28;20054;-64
2022/03/09 03:26:43;;;;;;;10.90;7.90;;;-0.60;99.90;;;;;;5048365;28;20045;-64
2022/03/09 03:29:09;;;;;;;10.15;6.88;;;-0.60;99.90;;;;;;5031821;28;20050;-64
2022/03/09 03:31:34;;;;;;;10.48;7.28;;;-0.60;99.90;;;;;;5031976;28;20057;-64
2022/03/09 03:34:00;;;;;;;9.48;7.00;;;-0.70;99.90;;;;;;5032271;28;20045;-65
2022/03/09 03:36:26;;;;;;;12.02;7.40;;;-0.70;99.90;;;;;;5051490;28;20499;-64
2022/03/09 03:38:52;;;;;;;9.98;7.13;;;-0.60;99.90;;;;;;5033946;28;20128;-64
2022/03/09 03:41:18;;;;;;;11.80;6.97;;;-0.70;99.90;;;;;;5031116;28;20080;-65
2022/03/09 03:43:43;;;;;;;11.13;7.85;;;-0.60;99.90;;;;;;5040043;28;20045;-64
2022/03/09 03:46:09;;;;;;;12.48;7.97;;;-0.60;99.90;;;;;;5051826;28;20044;-65
2022/03/09 03:48:34;;;;;;;10.32;6.97;;;-0.60;99.90;;;;;;5050970;28;20057;-64
2022/03/09 03:51:00;;;;;;;11.07;7.63;;;-0.60;99.90;;;;;;5051303;28;20447;-64
2022/03/09 03:53:26;;;;;;;13.45;7.85;;;-0.60;99.90;;;;;;5051238;28;20093;-65
2022/03/09 03:55:51;;;;;;;12.40;7.60;;;-0.70;99.90;;;;;;5052518;28;20080;-64
2022/03/09 03:58:17;;;;;;;10.60;7.30;;;-0.70;99.90;;;;;;5046271;28;20103;-65
2022/03/09 04:00:42;;;;;;;10.93;7.82;;;-0.70;99.90;;;;;;5031134;28;20053;-64
2022/03/09 04:03:08;;;;;;;11.45;7.68;;;-0.70;99.90;;;;;;5031463;28;20049;-64
2022/03/09 04:05:33;;;;;;;11.90;7.90;;;-0.70;99.90;;;;;;5050897;28;20045;-64
2022/03/09 04:07:59;;;;;;;14.27;7.75;;;-0.70;99.90;;;;;;5051248;28;20081;-62
2022/03/09 04:10:25;;;;;;;15.57;7.93;;;-0.70;99.90;;;;;;5050898;28;20052;-65
2022/03/09 04:12:50;;;;;;;12.15;7.82;;;-0.70;99.90;;;;;;5051068;28;20049;-65
2022/03/09 04:15:16;;;;;;;12.55;8.00;;;-0.80;99.90;;;;;;5051300;28;20048;-65
2022/03/09 04:17:44;;;;;;;11.88;7.72;;;-0.80;99.90;;;;;;5046709;28;20049;-62
2022/03/09 04:20:10;;;;;;;11.35;7.25;;;-0.80;99.90;;;;;;5031881;28;20061;-63
2022/03/09 04:22:36;;;;;;;10.82;7.47;;;-0.80;99.90;;;;;;5050943;28;20083;-64
2022/03/09 04:25:03;;;;;;;13.02;8.60;;;-0.80;99.90;;;;;;5051724;28;20477;-64
2022/03/09 04:27:28;;;;;;;10.38;7.57;;;-0.80;99.90;;;;;;5051826;28;20053;-64
2022/03/09 04:29:54;;;;;;;10.45;7.25;;;-0.80;99.90;;;;;;5051060;28;20080;-62
2022/03/09 04:32:19;;;;;;;11.57;7.57;;;-0.80;99.90;;;;;;5048433;28;20402;-63
2022/03/09 04:34:45;;;;;;;11.77;8.00;;;-0.80;99.90;;;;;;5050393;28;20057;-63
2022/03/09 04:37:10;;;;;;;11.68;7.93;;;-0.80;99.90;;;;;;5049841;28;20049;-64
2022/03/09 04:39:36;;;;;;;11.82;7.60;;;-0.80;99.90;;;;;;5050911;28;20049;-62
2022/03/09 04:42:02;;;;;;;10.77;7.05;;;-0.90;99.90;;;;;;5049818;28;20041;-64
2022/03/09 04:44:27;;;;;;;13.65;8.45;;;-0.90;99.90;;;;;;5050800;28;20118;-64
2022/03/09 04:46:53;;;;;;;10.77;7.45;;;-0.90;99.90;;;;;;5050401;28;20079;-63
2022/03/09 04:49:18;;;;;;;11.00;8.00;;;-0.90;99.90;;;;;;5051382;28;20053;-64
2022/03/09 04:51:44;;;;;;;11.63;7.88;;;-0.90;99.90;;;;;;5050376;28;20143;-62
2022/03/09 04:54:09;;;;;;;11.40;8.40;;;-1.00;99.90;;;;;;5050730;28;20045;-61
2022/03/09 04:56:35;;;;;;;13.80;7.90;;;-1.00;99.90;;;;;;5049983;28;20065;-63
2022/03/09 04:59:01;;;;;;;11.90;8.00;;;-1.00;99.90;;;;;;5048482;28;20049;-63
2022/03/09 05:01:27;;;;;;;11.55;7.97;;;-1.00;99.90;;;;;;5052448;28;20056;-64
2022/03/09 05:03:52;;;;;;;13.52;8.25;;;-1.00;99.90;;;;;;5054771;28;20049;-62
2022/03/09 05:06:18;;;;;;;12.45;7.43;;;-1.10;99.90;;;;;;5054153;28;20059;-63
2022/03/09 05:08:43;;;;;;;11.52;7.93;;;-1.10;99.90;;;;;;5047957;28;20049;-63
2022/03/09 05:11:09;;;;;;;11.73;8.13;;;-1.00;99.90;;;;;;5034106;28;20128;-63
2022/03/09 05:13:34;;;;;;;15.85;8.50;;;-1.20;99.90;;;;;;5050287;28;20048;-63
2022/03/09 05:16:00;;;;;;;12.73;8.20;;;-1.20;99.90;;;;;;5050960;28;20049;-65
2022/03/09 05:18:26;;;;;;;13.13;8.52;;;-1.20;99.90;;;;;;5037164;28;20047;-63
2022/03/09 05:20:51;;;;;;;12.90;8.70;;;-1.20;99.90;;;;;;5054425;28;20057;-62
2022/03/09 05:23:17;;;;;;;11.55;7.63;;;-1.20;99.90;;;;;;5054614;28;20497;-64
2022/03/09 05:25:42;;;;;;;12.30;7.88;;;-1.20;99.90;;;;;;5054184;28;20052;-63
2022/03/09 05:28:08;;;;;;;12.13;8.13;;;-1.20;99.90;;;;;;5054059;28;20063;-63
2022/03/09 05:30:33;;;;;;;10.65;8.15;;;-1.20;99.90;;;;;;5055220;28;20045;-63
2022/03/09 05:32:59;;;;;;;12.10;8.35;;;-1.20;99.90;;;;;;5054143;28;20095;-65
2022/03/09 05:35:24;;;;;;;13.45;7.97;;;-1.20;99.90;;;;;;5053971;28;20448;-64
2022/03/09 05:37:50;;;;;;;13.75;8.43;;;-1.20;99.90;;;;;;5053327;28;20464;-63
2022/03/09 05:40:15;;;;;;;13.68;8.60;;;-1.20;99.90;;;;;;5053599;28;20446;-64
2022/03/09 05:42:43;;;;;;;13.25;8.95;;;-1.20;99.90;;;;;;5055358;28;20053;-64
2022/03/09 05:45:09;;;;;;;14.45;7.93;;;-1.30;99.90;;;;;;5053908;28;20338;-64
2022/03/09 05:47:35;;;;;;;13.40;8.80;;;-1.30;99.90;;;;;;5053611;28;20057;-62
2022/03/09 05:50:00;;;;;;;13.18;8.77;;;-1.30;99.90;;;;;;5051622;28;20059;-63
2022/03/09 05:52:26;;;;;;;13.25;8.52;;;-1.30;99.90;;;;;;5051705;28;20056;-63
2022/03/09 05:54:52;;;;;;;15.05;8.52;;;-1.40;99.90;;;;;;5054199;28;20485;-64
2022/03/09 05:57:19;;;;;;;14.32;8.15;;;-1.30;99.90;;;;;;5053409;28;20397;-63
2022/03/09 05:59:46;;;;;;;11.02;8.07;;;-1.40;99.90;;;;;;5050019;28;20128;-64
2022/03/09 06:02:14;;;;;;;11.85;8.70;;;-1.40;99.90;;;;;;5049233;28;20501;-63
2022/03/09 06:04:42;;;;;;;11.75;7.95;;;-1.40;99.90;;;;;;5052212;28;20088;-63
2022/03/09 06:07:09;;;;;;;11.32;7.68;;;-1.40;99.90;;;;;;5052792;28;20535;-64
2022/03/09 06:09:35;;;;;;;14.77;8.75;;;-1.40;99.90;;;;;;5047095;28;20111;-63
2022/03/09 06:12:00;;;;;;;13.50;8.23;;;-1.50;99.90;;;;;;5032876;28;20041;-65
2022/03/09 06:14:26;;;;;;;10.85;7.65;;;-1.40;99.90;;;;;;5049289;28;20182;-64
2022/03/09 06:16:51;;;;;;;12.95;8.70;;;-1.40;99.90;;;;;;5049960;28;20131;-64
2022/03/09 06:19:17;;;;;;;11.38;7.90;;;-1.40;99.90;;;;;;5050704;28;20056;-63
2022/03/09 06:21:43;;;;;;;13.00;8.25;;;-1.40;99.90;;;;;;5052572;28;20098;-66
2022/03/09 06:24:09;;;;;;;12.40;7.85;;;-1.40;99.90;;;;;;5051382;28;20041;-63
2022/03/09 06:26:38;;;;;;;13.40;8.13;;;-1.40;99.90;;;;;;5047426;28;20053;-62
2022/03/09 06:29:05;;;;;;;9.95;7.40;;;-1.40;99.90;;;;;;5042394;28;20410;-64
2022/03/09 06:31:31;;;;;;;16.05;8.65;;;-1.30;99.90;;;;;;5039902;28;20060;-64
2022/03/09 06:33:57;;;;;;;14.55;8.77;;;-1.20;99.90;;;;;;5051147;28;20132;-63
2022/03/09 06:36:22;;;;;;;13.60;8.30;;;-1.20;99.90;;;;;;5047535;28;20128;-64
2022/03/09 06:38:48;;;;;;;24.55;9.00;;;-1.20;99.90;;;;;;5037306;28;20049;-63
2022/03/09 06:41:14;;;;;;;12.45;8.43;;;-1.20;99.90;;;;;;5049926;28;20486;-65
2022/03/09 06:43:39;;;;;;;13.88;8.52;;;-1.10;99.90;;;;;;5021618;28;20052;-64
2022/03/09 06:46:05;;;;;;;15.43;8.52;;;-1.10;99.90;;;;;;5035537;28;20128;-63
2022/03/09 06:48:31;;;;;;;13.55;8.35;;;-1.00;99.90;;;;;;5049813;28;21833;-65
2022/03/09 06:50:57;;;;;;;12.55;8.20;;;-1.00;99.90;;;;;;5051240;28;20040;-64
2022/03/09 06:53:22;;;;;;;12.73;8.45;;;-0.90;99.90;;;;;;5048779;28;20110;-65
2022/03/09 06:55:49;;;;;;;15.77;8.80;;;-0.80;99.90;;;;;;5039995;28;20048;-64
2022/03/09 06:58:15;;;;;;;10.52;7.60;;;-0.70;99.90;;;;;;5046394;28;20144;-65
2022/03/09 07:00:42;;;;;;;11.43;8.23;;;-0.50;99.90;;;;;;5046585;28;20049;-64
2022/03/09 07:03:08;;;;;;;12.98;8.55;;;-0.40;99.90;;;;;;5049281;28;20048;-66
2022/03/09 07:05:35;;;;;;;12.63;8.00;;;-0.30;99.90;;;;;;5046650;28;20051;-65
2022/03/09 07:08:01;;;;;;;10.68;7.78;;;-0.10;99.90;;;;;;5046394;28;20049;-65
2022/03/09 07:10:27;;;;;;;13.10;8.40;;;0.00;99.90;;;;;;5033779;28;20515;-65
2022/03/09 07:12:53;;;;;;;12.50;8.00;;;0.10;99.90;;;;;;5049735;28;20048;-64
2022/03/09 07:15:19;;;;;;;12.65;7.72;;;0.10;99.90;;;;;;5047457;28;20485;-67
2022/03/09 07:17:46;;;;;;;11.35;7.93;;;0.30;99.90;;;;;;5039745;28;20049;-66
2022/03/09 07:20:12;;;;;;;11.55;6.95;;;0.40;99.90;;;;;;5049072;28;20048;-65
2022/03/09 07:22:43;;;;;;;13.50;8.50;;;0.50;99.90;;;;;;5051271;28;20063;-64
2022/03/09 07:25:12;;;;;;;12.35;8.23;;;0.60;99.90;;;;;;5049668;28;20094;-65
2022/03/09 07:27:38;;;;;;;11.48;7.07;;;0.80;99.90;;;;;;5051941;28;20053;-67
2022/03/09 07:30:05;;;;;;;13.63;7.82;;;0.90;99.90;;;;;;5051897;28;20053;-64
2022/03/09 07:32:31;;;;;;;11.55;8.07;;;1.10;99.90;;;;;;5035865;28;20122;-65
2022/03/09 07:34:56;;;;;;;12.25;6.97;;;1.20;99.90;;;;;;5044867;28;20143;-64
2022/03/09 07:37:22;;;;;;;11.73;7.93;;;1.20;99.90;;;;;;5050955;28;20057;-65
2022/03/09 07:39:48;;;;;;;13.85;7.80;;;1.30;99.90;;;;;;5051351;28;20053;-65
2022/03/09 07:42:14;;;;;;;10.32;7.22;;;1.40;99.90;;;;;;5021621;28;20049;-66
2022/03/09 07:44:40;;;;;;;11.68;7.93;;;1.60;99.90;;;;;;5051866;28;20393;-65
2022/03/09 07:47:06;;;;;;;10.13;7.53;;;1.70;99.90;;;;;;5049144;28;20059;-65
2022/03/09 07:49:33;;;;;;;15.57;7.20;;;1.80;99.90;;;;;;5051747;28;20339;-66
2022/03/09 07:52:00;;;;;;;14.40;6.95;;;2.00;99.90;;;;;;5036243;28;20071;-66
2022/03/09 07:54:26;;;;;;;15.63;7.43;;;2.10;99.90;;;;;;5051095;28;20094;-65
2022/03/09 07:56:51;;;;;;;11.02;6.97;;;2.20;99.90;;;;;;5050701;28;20065;-66
2022/03/09 07:59:17;;;;;;;11.55;8.10;;;2.40;99.90;;;;;;5051142;28;20053;-64
2022/03/09 08:01:43;;;;;;;10.70;7.25;;;2.50;99.90;;;;;;5050925;28;20061;-65
2022/03/09 08:04:09;;;;;;;12.20;7.55;;;2.60;99.90;;;;;;5051036;28;20508;-64
2022/03/09 08:06:37;;;;;;;10.77;7.47;;;2.70;99.90;;;;;;5051767;28;20057;-64
2022/03/09 08:09:03;;;;;;;9.35;6.85;;;2.80;99.90;;;;;;5051120;28;20056;-64
2022/03/09 08:11:28;;;;;;;12.50;7.55;;;2.90;99.90;;;;;;5050739;28;20132;-65
2022/03/09 08:13:54;;;;;;;16.63;7.25;;;3.10;99.90;;;;;;5051441;28;20128;-65
2022/03/09 08:16:19;;;;;;;12.13;7.63;;;3.20;99.90;;;;;;5047978;28;20053;-66
2022/03/09 08:18:45;;;;;;;10.13;6.78;;;3.30;99.90;;;;;;5047968;28;20053;-65
2022/03/09 08:21:10;;;;;;;10.38;7.20;;;3.40;99.90;;;;;;5048355;28;20080;-65
2022/03/09 08:23:36;;;;;;;9.38;6.85;;;3.50;99.90;;;;;;5052246;28;20076;-65
2022/03/09 08:26:02;;;;;;;11.85;7.18;;;3.60;99.90;;;;;;5050346;28;20047;-65
2022/03/09 08:28:28;;;;;;;11.45;7.00;;;3.70;99.90;;;;;;5052091;28;20045;-64
2022/03/09 08:30:54;;;;;;;12.80;6.95;;;3.80;99.90;;;;;;5050922;28;20053;-66
2022/03/09 08:33:20;;;;;;;10.75;7.03;;;3.90;99.90;;;;;;5034663;28;20128;-66
2022/03/09 08:35:46;;;;;;;11.35;6.97;;;4.10;99.90;;;;;;5053613;28;20137;-66
2022/03/09 08:38:11;;;;;;;12.95;7.20;;;4.20;99.90;;;;;;5054881;28;20557;-64
2022/03/09 08:40:37;;;;;;;12.27;7.28;;;4.30;99.90;;;;;;5051429;28;20524;-62
2022/03/09 08:43:03;;;;;;;10.10;6.88;;;4.40;99.90;;;;;;5037512;28;20044;-68
2022/03/09 08:45:28;;;;;;;10.85;7.32;;;4.50;99.90;;;;;;5055302;28;20056;-65
2022/03/09 08:47:54;;;;;;;13.20;7.38;;;4.60;99.90;;;;;;5054666;28;20508;-66
2022/03/09 08:50:20;;;;;;;9.90;7.00;;;4.70;99.90;;;;;;5054999;28;20572;-64
2022/03/09 08:52:45;;;;;;;9.60;7.07;;;4.80;99.90;;;;;;5056093;28;20505;-63
2022/03/09 08:55:11;;;;;;;12.48;7.53;;;4.90;99.90;;;;;;5053229;28;20049;-67
2022/03/09 08:57:36;;;;;;;9.23;6.85;;;5.00;99.90;;;;;;5054147;28;20045;-64
2022/03/09 09:00:04;;;;;;;10.30;6.97;;;5.10;99.90;;;;;;5056821;28;20080;-65
2022/03/09 09:02:31;;;;;;;10.63;7.40;;;5.30;99.90;;;;;;5053043;28;20389;-66
2022/03/09 09:04:57;;;;;;;11.68;7.28;;;5.30;99.90;;;;;;5054170;28;20181;-63
2022/03/09 09:07:23;;;;;;;13.38;7.35;;;5.60;99.90;;;;;;5052541;28;20545;-64
2022/03/09 09:09:49;;;;;;;8.55;6.82;;;5.60;99.90;;;;;;5055165;28;20128;-67
2022/03/09 09:12:16;;;;;;;11.00;7.57;;;5.80;99.90;;;;;;5053324;28;20406;-65
2022/03/09 09:14:41;;;;;;;10.05;7.47;;;5.90;99.90;;;;;;5053105;28;20045;-63
2022/03/09 09:17:07;;;;;;;12.02;8.38;;;5.90;99.90;;;;;;5050567;28;20045;-65
2022/03/09 09:19:33;;;;;;;13.00;8.02;;;6.10;99.90;;;;;;5053914;28;20053;-65
2022/03/09 09:21:59;;;;;;;11.82;7.55;;;6.20;99.90;;;;;;5053739;28;20405;-66
2022/03/09 09:24:25;;;;;;;10.85;7.60;;;6.30;99.90;;;;;;5052911;28;20059;-66
2022/03/09 09:26:51;;;;;;;10.60;7.63;;;6.40;99.90;;;;;;5043691;28;20058;-65
2022/03/09 09:29:17;;;;;;;10.98;7.80;;;6.50;98.30;;;;;;5055212;28;20111;-66
2022/03/09 09:31:42;;;;;;;11.40;7.50;;;6.60;98.20;;;;;;5062418;28;20369;-67
2022/03/09 09:34:08;;;;;;;11.55;8.10;;;6.80;94.80;;;;;;5055825;28;20045;-66
2022/03/09 09:36:34;;;;;;;11.90;8.15;;;6.90;94.60;;;;;;5066820;28;20052;-65
2022/03/09 09:39:00;;;;;;;9.45;7.43;;;7.10;88.90;;;;;;5054272;28;20045;-68
2022/03/09 09:41:27;;;;;;;11.25;7.55;;;7.20;89.00;;;;;;5053557;28;20053;-65
2022/03/09 09:43:53;;;;;;;10.15;8.15;;;7.30;89.00;;;;;;5053246;28;20052;-66
2022/03/09 09:46:19;;;;;;;9.70;7.53;;;7.40;80.80;;;;;;5052876;28;20498;-65
2022/03/09 09:48:45;;;;;;;10.27;7.43;;;7.60;79.90;;;;;;5058330;28;20055;-64
2022/03/09 09:51:12;;;;;;;10.95;7.60;;;7.70;76.30;;;;;;5062306;28;20064;-65
2022/03/09 09:53:42;;;;;;;10.02;7.65;;;7.80;73.40;;;;;;5064301;28;20219;-67
2022/03/09 09:56:09;;;;;;;10.10;7.47;;;7.90;73.40;;;;;;5062834;28;20443;-65
2022/03/09 09:58:42;;;;;;;13.40;8.07;;;8.00;71.10;;;;;;5062301;28;20055;-65
2022/03/09 10:01:09;;;;;;;8.88;7.07;;;8.00;71.40;;;;;;5051458;28;20560;-65
2022/03/09 10:03:35;;;;;;;9.73;7.88;;;8.10;69.60;;;;;;5036622;28;20102;-66
2022/03/09 10:06:00;;;;;;;12.35;8.30;;;8.20;68.80;;;;;;5033721;28;20132;-67
2022/03/09 10:08:26;;;;;;;11.00;7.72;;;8.20;67.50;;;;;;5053850;28;20080;-65
2022/03/09 10:10:59;;;;;;;11.20;8.15;;;8.30;67.20;;;;;;5052666;28;20052;-66
2022/03/09 10:13:33;;;;;;;9.98;7.82;;;8.40;66.60;;;;;;5050043;28;20057;-65
2022/03/09 10:16:16;;;;;;;9.77;7.88;;;8.40;65.50;;;;;;5052533;28;20064;-66
2022/03/09 10:18:54;;;;;;;10.23;7.82;;;8.40;63.70;;;;;;5052285;28;20053;-67
2022/03/09 10:21:28;;;;;;;9.27;8.00;;;8.60;66.40;;;;;;5053435;28;20040;-65
2022/03/09 10:24:09;;;;;;;10.93;7.50;;;8.70;66.60;;;;;;5052554;28;20127;-66
2022/03/09 10:26:34;;;;;;;9.43;7.88;;;8.80;63.70;;;;;;5053335;28;20094;-65
2022/03/09 10:29:07;;;;;;;13.18;8.13;;;8.90;64.50;;;;;;5052381;28;20505;-68
2022/03/09 10:31:39;;;;;;;9.30;7.90;;;9.10;65.20;;;;;;5050060;28;20057;-65
2022/03/09 10:34:07;;;;;;;10.50;7.72;;;9.20;63.20;;;;;;5052110;28;20098;-67
2022/03/09 10:36:32;;;;;;;14.88;7.95;;;9.20;64.50;;;;;;5051511;28;20431;-66
2022/03/09 10:39:15;;;;;;;10.88;8.07;;;9.30;62.90;;;;;;5052735;28;20140;-68
2022/03/09 10:41:43;;;;;;;15.77;7.90;;;9.40;62.00;;;;;;5051598;28;20513;-65
2022/03/09 10:44:09;;;;;;;10.18;7.50;;;9.40;60.40;;;;;;5052404;28;20102;-66
2022/03/09 10:46:48;;;;;;;10.85;8.15;;;9.40;60.40;;;;;;5053035;28;20049;-67
2022/03/09 10:49:19;;;;;;;11.52;8.02;;;9.50;60.00;;;;;;5053293;28;20080;-66
2022/03/09 10:51:52;;;;;;;12.20;8.05;;;9.60;60.20;;;;;;5052309;28;20053;-64
2022/03/09 10:54:23;;;;;;;10.05;7.97;;;9.60;59.00;;;;;;5051507;28;20061;-66
2022/03/09 10:56:50;;;;;;;8.90;7.70;;;9.70;58.60;;;;;;5043984;28;20053;-63
2022/03/09 10:59:24;;;;;;;12.75;8.15;;;9.70;60.00;;;;;;5041230;28;20060;-62
2022/03/09 11:02:03;;;;;;;11.63;8.15;;;9.70;58.80;;;;;;5052349;28;20087;-65
2022/03/09 11:04:29;;;;;;;9.10;7.18;;;9.80;58.30;;;;;;5053281;28;20056;-65
2022/03/09 11:06:57;;;;;;;11.82;8.52;;;9.90;59.70;;;;;;5049379;28;20044;-64
2022/03/09 11:09:22;;;;;;;10.02;7.22;;;10.00;59.50;;;;;;5050422;28;20056;-67
2022/03/09 11:11:49;;;;;;;11.20;7.97;;;10.10;59.80;;;;;;5038855;28;20049;-66
2022/03/09 11:14:19;;;;;;;12.95;8.15;;;10.20;57.90;;;;;;5045710;28;20049;-66
2022/03/09 11:16:47;;;;;;;10.38;7.75;;;10.30;57.60;;;;;;5050270;28;20080;-65
2022/03/09 11:19:13;;;;;;;13.13;8.57;;;10.40;58.60;;;;;;5050816;28;20401;-65
2022/03/09 11:21:39;;;;;;;12.13;8.40;;;10.40;58.40;;;;;;5050025;28;20393;-66
2022/03/09 11:24:15;;;;;;;11.73;8.85;;;10.50;57.80;;;;;;5051077;28;20060;-67
2022/03/09 11:26:45;;;;;;;10.13;8.35;;;10.60;56.80;;;;;;5046546;28;20060;-67
2022/03/09 11:29:12;;;;;;;11.10;8.27;;;10.60;56.80;;;;;;5051191;28;20092;-63
2022/03/09 11:31:56;;;;;;;10.60;8.00;;;10.60;57.80;;;;;;5048654;28;20037;-65
2022/03/09 11:34:46;;;;;;;11.75;8.38;;;10.70;56.70;;;;;;5052347;28;20154;-65
2022/03/09 11:37:18;;;;;;;11.10;8.30;;;10.80;56.40;;;;;;5050434;28;20132;-66
2022/03/09 11:40:10;;;;;;;13.27;8.95;;;10.80;56.20;;;;;;5053264;28;20057;-65
2022/03/09 11:42:37;;;;;;;12.55;8.65;;;10.90;55.00;;;;;;5051156;28;20053;-65
2022/03/09 11:45:20;;;;;;;14.02;8.88;;;11.00;55.90;;;;;;5042850;28;20053;-64
2022/03/09 11:47:57;;;;;;;10.45;8.38;;;11.10;55.60;;;;;;5038869;28;20048;-66
2022/03/09 11:50:23;;;;;;;10.70;8.20;;;11.20;53.70;;;;;;5051756;28;20485;-62
2022/03/09 11:53:03;;;;;;;11.15;8.48;;;11.20;53.60;;;;;;5051040;28;20434;-63
2022/03/09 11:55:29;;;;;;;12.43;9.25;;;11.20;53.70;;;;;;5051486;28;20124;-63
2022/03/09 11:57:55;;;;;;;13.50;8.38;;;11.10;53.10;;;;;;5052328;28;20444;-64
2022/03/09 12:00:21;;;;;;;9.88;7.82;;;11.10;53.70;;;;;;5051592;28;20124;-64
2022/03/09 12:02:55;;;;;;;9.93;8.07;;;11.20;54.10;;;;;;5031467;28;20051;-64
2022/03/09 12:05:35;;;;;;;11.98;8.57;;;11.20;54.50;;;;;;5050829;28;20049;-66
2022/03/09 12:08:14;;;;;;;11.90;8.57;;;11.30;54.90;;;;;;5048112;28;20512;-65
2022/03/09 12:10:50;;;;;;;11.55;8.73;;;11.40;54.80;;;;;;5052678;28;20154;-65
2022/03/09 12:13:25;;;;;;;10.80;8.55;;;11.50;55.70;;;;;;5035569;28;20049;-64
2022/03/09 12:16:17;;;;;;;11.07;8.55;;;11.60;55.20;;;;;;5044182;28;20053;-63
2022/03/09 12:19:09;;;;;;;10.55;8.27;;;11.70;53.80;;;;;;5055721;28;20106;-65
2022/03/09 12:21:39;;;;;;;10.35;8.45;;;11.70;53.20;;;;;;5053049;28;20052;-65
2022/03/09 12:24:04;;;;;;;11.32;8.73;;;11.80;53.30;;;;;;5056217;28;20452;-63
2022/03/09 12:26:47;;;;;;;11.55;8.85;;;11.80;52.70;;;;;;5054746;28;20061;-64
2022/03/09 12:29:23;;;;;;;12.10;9.20;;;11.80;53.50;;;;;;5053993;28;20053;-64
2022/03/09 12:31:58;;;;;;;12.88;9.30;;;11.90;53.30;;;;;;5054822;28;20481;-63
2022/03/09 12:34:25;;;;;;;9.07;8.05;;;11.90;52.60;;;;;;5055024;28;20048;-64
2022/03/09 12:36:51;;;;;;;21.30;14.23;;;12.00;52.80;;;;;;5055816;28;20120;-63
2022/03/09 12:39:17;;;;;;;11.15;9.55;;;12.00;52.80;;;;;;5054764;28;20087;-64
2022/03/09 12:41:44;;;;;;;11.00;9.02;;;12.10;53.00;;;;;;5054541;28;20044;-62
2022/03/09 12:44:14;;;;;;;11.05;8.80;;;12.20;52.60;;;;;;5056065;28;20053;-64
2022/03/09 12:46:41;;;;;;;12.55;8.25;;;12.20;52.30;;;;;;5056119;28;20127;-62